Time;durP1;ratioP1;P1;durP2;ratioP2;P2;SDS_P1;SDS_P2;PMS_P1;PMS_P2;Temp;Humidity;BMP_temperature;BMP_pressure;BME280_temperature;BME280_humidity;BME280_pressure;Samples;Min_cycle;Max_cycle;Signal;HPM_P1;HPM_P2
2023/03/12 00:00:23;;;;;;;;;;;;;;;22.30;55.57;95990.34;590262;240;64804;-65
2023/03/12 00:02:52;;;;;;;;;;;;;;;22.29;55.79;95988.77;590218;240;63149;-65
2023/03/12 00:05:21;;;;;;;;;;;;;;;22.28;55.65;95995.20;590267;240;65007;-66
2023/03/12 00:07:49;;;;;;;;;;;;;;;22.29;53.86;96006.69;590318;240;67073;-65
2023/03/12 00:10:17;;;;;;;;;;;;;;;22.27;54.20;96009.69;590254;240;62967;-65
2023/03/12 00:12:44;;;;;;;;;;;;;;;22.27;54.67;95998.98;590288;240;65047;-60
2023/03/12 00:15:12;;;;;;;;;;;;;;;22.27;55.52;96008.89;590285;240;67292;-65
2023/03/12 00:17:40;;;;;;;;;;;;;;;22.27;53.97;95998.19;590251;240;65081;-66
2023/03/12 00:20:07;;;;;;;;;;;;;;;22.26;54.50;96008.11;590340;240;65211;-59
2023/03/12 00:22:35;;;;;;;;;;;;;;;22.26;53.61;96008.11;590347;240;67125;-59
2023/03/12 00:25:02;;;;;;;;;;;;;;;22.26;54.55;96010.78;590263;240;65062;-59
2023/03/12 00:27:30;;;;;;;;;;;;;;;22.25;52.68;96024.45;590300;240;67143;-59
2023/03/12 00:29:58;;;;;;;;;;;;;;;22.25;53.05;96027.14;590261;240;64634;-65
2023/03/12 00:32:25;;;;;;;;;;;;;;;22.24;55.60;96026.34;590289;240;65247;-59
2023/03/12 00:34:54;;;;;;;;;;;;;;;22.24;54.63;96022.89;590307;240;67254;-59
2023/03/12 00:37:22;;;;;;;;;;;;;;;22.24;55.21;96031.70;590290;240;67156;-59
2023/03/12 00:39:49;;;;;;;;;;;;;;;22.22;55.00;96031.20;590292;240;64985;-59
2023/03/12 00:42:17;;;;;;;;;;;;;;;22.23;53.73;96027.42;590309;240;66991;-65
2023/03/12 00:44:45;;;;;;;;;;;;;;;22.23;52.84;96018.61;590297;240;66494;-66
2023/03/12 00:47:13;;;;;;;;;;;;;;;22.22;54.49;96020.50;590348;240;64980;-65
2023/03/12 00:49:40;;;;;;;;;;;;;;;22.22;52.24;96017.83;590304;240;66832;-65
2023/03/12 00:52:08;;;;;;;;;;;;;;;22.22;55.69;96001.77;590293;240;65091;-65
2023/03/12 00:54:35;;;;;;;;;;;;;;;22.21;53.66;96016.25;590300;240;65102;-65
2023/03/12 00:57:03;;;;;;;;;;;;;;;22.21;54.43;96026.95;590283;240;66919;-65
2023/03/12 00:59:31;;;;;;;;;;;;;;;22.20;55.39;96028.03;590345;240;64322;-65
2023/03/12 01:01:58;;;;;;;;;;;;;;;22.21;54.28;96028.82;590311;240;65086;-66
2023/03/12 01:04:26;;;;;;;;;;;;;;;22.21;55.18;96034.17;590311;240;67067;-65
2023/03/12 01:06:54;;;;;;;;;;;;;;;22.20;55.41;96036.06;590295;240;67858;-66
2023/03/12 01:09:22;;;;;;;;;;;;;;;22.20;54.84;96025.36;590309;240;63211;-65
2023/03/12 01:11:51;;;;;;;;;;;;;;;22.19;54.98;96023.78;590293;240;67669;-66
2023/03/12 01:14:19;;;;;;;;;;;;;;;22.17;52.20;96017.91;590307;240;72639;-66
2023/03/12 01:16:47;;;;;;;;;;;;;;;22.17;53.48;96018.69;590269;240;63745;-66
2023/03/12 01:19:15;;;;;;;;;;;;;;;22.18;54.22;96024.89;590279;240;67721;-66
2023/03/12 01:21:42;;;;;;;;;;;;;;;22.17;55.13;96028.61;590295;240;66878;-59
2023/03/12 01:24:10;;;;;;;;;;;;;;;22.17;54.80;96033.96;590267;240;62747;-59
2023/03/12 01:26:37;;;;;;;;;;;;;;;22.17;53.54;96031.29;590308;240;64816;-59
2023/03/12 01:29:05;;;;;;;;;;;;;;;22.15;53.16;96036.14;590288;240;67226;-60
2023/03/12 01:31:32;;;;;;;;;;;;;;;22.17;54.86;96028.61;590282;240;65189;-65
2023/03/12 01:34:00;;;;;;;;;;;;;;;22.16;53.20;96029.72;590316;240;67385;-65
2023/03/12 01:36:29;;;;;;;;;;;;;;;22.14;52.50;96027.33;586989;240;64881;-65
2023/03/12 01:38:57;;;;;;;;;;;;;;;22.14;53.99;96027.33;586072;242;65118;-65
2023/03/12 01:41:26;;;;;;;;;;;;;;;22.14;53.42;96019.30;586016;242;64899;-65
2023/03/12 01:43:54;;;;;;;;;;;;;;;22.14;53.11;96026.55;586051;242;66974;-66
2023/03/12 01:46:35;;;;;;;;;;;;;;;22.13;53.03;96019.62;586044;242;65782;-66
2023/03/12 01:49:08;;;;;;;;;;;;;;;22.12;52.79;96024.16;585992;242;45900;-66
2023/03/12 01:51:38;;;;;;;;;;;;;;;22.13;54.77;96022.30;586001;242;67530;-66
2023/03/12 01:54:07;;;;;;;;;;;;;;;22.12;54.12;96018.80;585982;242;63912;-66
2023/03/12 01:56:35;;;;;;;;;;;;;;;22.12;53.79;96018.80;586025;242;67056;-66
2023/03/12 01:59:04;;;;;;;;;;;;;;;22.11;52.88;96024.47;586084;242;66850;-66
2023/03/12 02:01:32;;;;;;;;;;;;;;;22.11;53.60;96027.94;585999;242;71231;-66
2023/03/12 02:04:01;;;;;;;;;;;;;;;22.11;55.50;96024.47;586045;242;64599;-66
2023/03/12 02:06:30;;;;;;;;;;;;;;;22.11;53.54;96033.28;586055;242;67584;-66
2023/03/12 02:08:59;;;;;;;;;;;;;;;22.11;56.11;96040.53;586024;242;62816;-66
2023/03/12 02:11:26;;;;;;;;;;;;;;;22.10;55.94;96039.74;586058;242;64887;-66
2023/03/12 02:13:54;;;;;;;;;;;;;;;22.09;52.47;96032.00;586023;242;67464;-66
2023/03/12 02:16:22;;;;;;;;;;;;;;;22.09;53.83;96032.00;586032;242;65103;-66
2023/03/12 02:18:51;;;;;;;;;;;;;;;22.09;55.66;96034.68;586106;242;67976;-66
2023/03/12 02:21:23;;;;;;;;;;;;;;;22.07;53.87;96026.97;586076;242;66816;-60
2023/03/12 02:23:56;;;;;;;;;;;;;;;22.07;52.24;96037.67;586087;242;62590;-59
2023/03/12 02:26:24;;;;;;;;;;;;;;;22.08;54.16;96035.78;586052;242;66857;-59
2023/03/12 02:28:53;;;;;;;;;;;;;;;22.07;54.20;96043.02;581308;242;68264;-59
2023/03/12 02:31:22;;;;;;;;;;;;;;;22.07;54.32;96047.56;586023;242;63077;-59
2023/03/12 02:33:51;;;;;;;;;;;;;;;22.07;51.49;96050.23;586096;242;65850;-59
2023/03/12 02:36:20;;;;;;;;;;;;;;;22.06;54.02;96045.98;585996;241;66910;-59
2023/03/12 02:38:52;;;;;;;;;;;;;;;22.06;54.02;96046.77;586050;242;62672;-59
2023/03/12 02:41:24;;;;;;;;;;;;;;;22.05;54.65;96055.12;586026;242;65098;-60
2023/03/12 02:44:11;;;;;;;;;;;;;;;22.04;52.26;96054.30;586031;242;64945;-59
2023/03/12 02:46:43;;;;;;;;;;;;;;;22.05;53.18;96065.82;586035;242;64958;-59
2023/03/12 02:49:16;;;;;;;;;;;;;;;22.04;49.94;96069.56;586089;242;67314;-59
2023/03/12 02:51:41;;;;;;;;;;;;;;;22.05;52.35;96060.47;585840;242;64740;-59
2023/03/12 02:54:10;;;;;;;;;;;;;;;22.03;52.19;96070.67;586033;242;65103;-59
2023/03/12 02:56:38;;;;;;;;;;;;;;;22.02;52.31;96067.20;585982;242;65026;-59
2023/03/12 02:59:06;;;;;;;;;;;;;;;22.03;53.03;96076.02;586035;242;65879;-59
2023/03/12 03:01:35;;;;;;;;;;;;;;;22.03;50.70;96076.02;586076;242;43944;-59
2023/03/12 03:04:04;;;;;;;;;;;;;;;22.03;50.75;96079.48;586071;242;68468;-59
2023/03/12 03:06:32;;;;;;;;;;;;;;;22.03;50.20;96079.48;586010;242;64813;-59
2023/03/12 03:08:59;;;;;;;;;;;;;;;22.04;49.82;96090.97;586034;242;63059;-59
2023/03/12 03:11:27;;;;;;;;;;;;;;;22.03;51.32;96094.75;586023;242;67132;-59
2023/03/12 03:13:55;;;;;;;;;;;;;;;22.04;50.31;96107.02;586068;242;66939;-59
2023/03/12 03:16:23;;;;;;;;;;;;;;;22.03;51.00;96113.48;586051;242;63059;-59
2023/03/12 03:18:51;;;;;;;;;;;;;;;22.03;50.56;96108.13;586000;242;67211;-59
2023/03/12 03:21:19;;;;;;;;;;;;;;;22.04;51.29;96109.70;586030;242;68070;-59
2023/03/12 03:23:48;;;;;;;;;;;;;;;22.01;50.63;96113.77;586021;242;65764;-59
2023/03/12 03:26:16;;;;;;;;;;;;;;;22.01;51.03;96119.11;586035;240;67216;-59
2023/03/12 03:28:44;;;;;;;;;;;;;;;22.02;50.90;96130.63;586084;242;64721;-59
2023/03/12 03:31:12;;;;;;;;;;;;;;;22.02;50.88;96136.77;586007;242;66237;-59
2023/03/12 03:33:40;;;;;;;;;;;;;;;22.00;49.87;96138.94;586033;242;67086;-60
2023/03/12 03:36:09;;;;;;;;;;;;;;;22.01;50.45;96142.41;585997;241;64754;-59
2023/03/12 03:38:39;;;;;;;;;;;;;;;22.00;49.97;96152.32;586001;242;43185;-60
2023/03/12 03:41:06;;;;;;;;;;;;;;;22.00;50.26;96146.19;586054;242;64613;-60
2023/03/12 03:43:36;;;;;;;;;;;;;;;22.00;50.53;96154.20;586078;242;45925;-60
2023/03/12 03:46:05;;;;;;;;;;;;;;;22.00;49.46;96154.20;586016;242;65939;-60
2023/03/12 03:48:34;;;;;;;;;;;;;;;21.98;50.17;96157.17;586140;240;44655;-60
2023/03/12 03:51:02;;;;;;;;;;;;;;;21.99;49.36;96160.63;586086;242;64448;-66
2023/03/12 03:53:31;;;;;;;;;;;;;;;21.99;50.11;96165.98;586092;242;65061;-66
2023/03/12 03:56:00;;;;;;;;;;;;;;;21.97;49.82;96168.97;586143;242;65007;-66
2023/03/12 03:58:28;;;;;;;;;;;;;;;21.97;50.22;96168.97;585992;242;66953;-66
2023/03/12 04:00:56;;;;;;;;;;;;;;;21.97;49.47;96178.88;586075;242;65959;-66
2023/03/12 04:03:24;;;;;;;;;;;;;;;21.98;50.42;96193.83;586121;242;68115;-66
2023/03/12 04:05:55;;;;;;;;;;;;;;;21.97;50.49;96186.91;586102;242;64937;-66
2023/03/12 04:08:22;;;;;;;;;;;;;;;21.98;50.16;96193.83;586127;242;65831;-65
2023/03/12 04:10:50;;;;;;;;;;;;;;;21.95;49.38;96196.01;586080;242;64586;-65
2023/03/12 04:13:19;;;;;;;;;;;;;;;21.96;48.92;96202.14;586070;242;67419;-66
2023/03/12 04:15:48;;;;;;;;;;;;;;;21.95;49.67;96189.87;586102;242;62771;-65
2023/03/12 04:18:16;;;;;;;;;;;;;;;21.95;49.81;96205.92;585892;242;67875;-65
2023/03/12 04:20:44;;;;;;;;;;;;;;;21.93;49.59;96214.26;586073;242;67102;-65
2023/03/12 04:23:12;;;;;;;;;;;;;;;21.94;50.74;96197.11;586142;242;62899;-65
2023/03/12 04:25:39;;;;;;;;;;;;;;;21.93;49.48;96202.73;586053;242;64910;-59
2023/03/12 04:28:07;;;;;;;;;;;;;;;21.93;49.73;96219.61;586103;242;66839;-59
2023/03/12 04:30:37;;;;;;;;;;;;;;;21.94;50.97;96231.09;586098;242;65018;-59
2023/03/12 04:33:05;;;;;;;;;;;;;;;21.93;50.64;96230.31;586101;242;67111;-59
2023/03/12 04:35:33;;;;;;;;;;;;;;;21.92;49.77;96233.27;587736;240;67822;-59
2023/03/12 04:38:01;;;;;;;;;;;;;;;21.92;49.99;96241.29;590258;240;65817;-59
2023/03/12 04:40:30;;;;;;;;;;;;;;;21.92;49.84;96249.31;590323;240;67423;-59
2023/03/12 04:43:00;;;;;;;;;;;;;;;21.90;49.55;96249.59;590319;240;67446;-59
2023/03/12 04:45:29;;;;;;;;;;;;;;;21.90;49.83;96260.30;590327;240;64038;-59
2023/03/12 04:47:56;;;;;;;;;;;;;;;21.90;50.09;96256.83;590380;240;67314;-59
2023/03/12 04:50:24;;;;;;;;;;;;;;;21.89;50.26;96261.39;590296;240;66672;-59
2023/03/12 04:52:52;;;;;;;;;;;;;;;21.89;51.62;96272.09;590364;240;63076;-59
2023/03/12 04:55:20;;;;;;;;;;;;;;;21.89;50.55;96273.98;590343;240;67435;-65
2023/03/12 04:57:47;;;;;;;;;;;;;;;21.87;50.95;96279.61;590301;240;66795;-65
2023/03/12 05:00:18;;;;;;;;;;;;;;;21.88;51.99;96285.75;590331;240;65799;-65
2023/03/12 05:02:48;;;;;;;;;;;;;;;21.88;51.65;96301.80;589475;240;44605;-65
2023/03/12 05:05:15;;;;;;;;;;;;;;;21.87;54.35;96302.90;590285;240;64753;-65
2023/03/12 05:07:43;;;;;;;;;;;;;;;21.87;54.74;96295.66;590313;240;65795;-65
2023/03/12 05:10:11;;;;;;;;;;;;;;;21.86;53.47;96290.63;590307;240;67350;-66
2023/03/12 05:12:39;;;;;;;;;;;;;;;21.85;53.31;96303.20;590302;240;64640;-65
2023/03/12 05:15:07;;;;;;;;;;;;;;;21.84;53.87;96306.95;590332;240;65705;-59
2023/03/12 05:17:35;;;;;;;;;;;;;;;21.84;54.09;96314.98;590297;240;67980;-59
2023/03/12 05:20:05;;;;;;;;;;;;;;;21.83;54.11;96329.45;590284;240;64551;-59
2023/03/12 05:22:34;;;;;;;;;;;;;;;21.84;53.86;96344.40;590286;240;63124;-59
2023/03/12 05:25:02;;;;;;;;;;;;;;;21.82;51.97;96332.41;590240;238;67200;-59
2023/03/12 05:27:29;;;;;;;;;;;;;;;21.83;54.13;96339.36;590321;240;64534;-59
2023/03/12 05:29:58;;;;;;;;;;;;;;;21.81;53.69;96339.64;590294;240;65188;-59
2023/03/12 05:32:28;;;;;;;;;;;;;;;21.82;54.21;96353.80;590283;240;64945;-60
2023/03/12 05:34:57;;;;;;;;;;;;;;;21.81;50.84;96350.34;590236;240;67182;-59
2023/03/12 05:37:26;;;;;;;;;;;;;;;21.81;52.94;96354.90;590255;240;65279;-59
2023/03/12 05:39:56;;;;;;;;;;;;;;;21.81;52.82;96360.25;590295;240;48287;-59
2023/03/12 05:42:24;;;;;;;;;;;;;;;21.80;54.66;96364.81;590329;240;66821;-59
2023/03/12 05:44:51;;;;;;;;;;;;;;;21.80;54.48;96366.66;590270;240;62860;-59
2023/03/12 05:47:19;;;;;;;;;;;;;;;21.78;52.98;96377.67;590273;240;67626;-59
2023/03/12 05:49:47;;;;;;;;;;;;;;;21.79;52.01;96389.95;590246;240;67829;-59
2023/03/12 05:52:15;;;;;;;;;;;;;;;21.78;50.81;96388.37;590288;240;63611;-59
2023/03/12 05:54:43;;;;;;;;;;;;;;;21.77;50.63;96397.48;590335;240;67640;-59
2023/03/12 05:57:10;;;;;;;;;;;;;;;21.79;50.86;96410.55;590261;240;66909;-65
2023/03/12 05:59:38;;;;;;;;;;;;;;;21.78;51.02;96400.95;590258;240;65711;-66
2023/03/12 06:02:07;;;;;;;;;;;;;;;21.77;50.70;96397.48;590289;240;67670;-65
2023/03/12 06:04:35;;;;;;;;;;;;;;;21.78;50.63;96407.09;590305;240;64886;-59
2023/03/12 06:07:02;;;;;;;;;;;;;;;21.77;51.71;96402.84;590336;240;64952;-59
2023/03/12 06:09:31;;;;;;;;;;;;;;;21.77;51.13;96421.56;590264;240;64596;-59
2023/03/12 06:11:58;;;;;;;;;;;;;;;21.77;51.96;96428.77;590275;240;67080;-59
2023/03/12 06:14:26;;;;;;;;;;;;;;;21.77;51.01;96444.81;590254;240;64901;-59
2023/03/12 06:16:54;;;;;;;;;;;;;;;21.76;52.91;96449.37;590295;240;65106;-59
2023/03/12 06:19:22;;;;;;;;;;;;;;;21.75;51.80;96450.47;590320;240;67063;-59
2023/03/12 06:21:50;;;;;;;;;;;;;;;21.75;51.34;96458.48;590276;240;65762;-59
2023/03/12 06:24:17;;;;;;;;;;;;;;;21.73;50.93;96456.09;590257;240;67233;-59
2023/03/12 06:26:47;;;;;;;;;;;;;;;21.74;50.23;96446.19;590074;240;47870;-59
2023/03/12 06:29:14;;;;;;;;;;;;;;;21.74;50.69;96443.51;590273;240;62761;-59
2023/03/12 06:31:42;;;;;;;;;;;;;;;21.74;51.08;96456.87;590292;240;64838;-60
2023/03/12 06:34:10;;;;;;;;;;;;;;;21.72;50.85;96467.88;590338;240;66867;-59
2023/03/12 06:36:38;;;;;;;;;;;;;;;21.72;50.13;96467.88;586704;240;62958;-59
2023/03/12 06:39:05;;;;;;;;;;;;;;;21.73;51.40;96479.37;586016;242;67426;-59
2023/03/12 06:41:33;;;;;;;;;;;;;;;21.72;49.76;96475.12;586049;242;67065;-59
2023/03/12 06:44:04;;;;;;;;;;;;;;;21.72;50.38;96480.47;586032;242;65087;-59
2023/03/12 06:46:31;;;;;;;;;;;;;;;21.72;50.25;96480.47;586078;242;64113;-59
2023/03/12 06:48:58;;;;;;;;;;;;;;;21.72;51.47;96489.28;586050;242;67108;-59
2023/03/12 06:51:26;;;;;;;;;;;;;;;21.72;51.63;96496.52;586008;242;65047;-59
2023/03/12 06:53:53;;;;;;;;;;;;;;;21.72;54.02;96501.86;586043;242;67012;-59
2023/03/12 06:56:21;;;;;;;;;;;;;;;21.71;51.84;96510.95;586055;242;66797;-59
2023/03/12 06:58:49;;;;;;;;;;;;;;;21.70;52.73;96517.39;586063;242;65132;-59
2023/03/12 07:01:16;;;;;;;;;;;;;;;21.70;51.96;96517.39;586047;242;67231;-59
2023/03/12 07:03:46;;;;;;;;;;;;;;;21.70;51.79;96514.72;586010;242;67359;-60
2023/03/12 07:06:14;;;;;;;;;;;;;;;21.70;52.45;96520.86;586044;242;65074;-59
2023/03/12 07:08:41;;;;;;;;;;;;;;;21.70;52.90;96518.18;586047;242;67299;-59
2023/03/12 07:11:09;;;;;;;;;;;;;;;21.70;49.45;96528.09;586075;242;66867;-59
2023/03/12 07:13:36;;;;;;;;;;;;;;;21.71;54.15;96537.69;586026;242;65718;-59
2023/03/12 07:16:04;;;;;;;;;;;;;;;21.69;49.97;96539.88;586042;242;67235;-59
2023/03/12 07:18:32;;;;;;;;;;;;;;;21.69;50.18;96548.69;585997;242;67080;-59
2023/03/12 07:21:00;;;;;;;;;;;;;;;21.71;54.19;96553.73;586046;242;65051;-59
2023/03/12 07:23:28;;;;;;;;;;;;;;;21.69;49.83;96551.37;586076;242;64702;-59
2023/03/12 07:25:55;;;;;;;;;;;;;;;21.70;52.48;96555.63;586074;242;64907;-59
2023/03/12 07:28:23;;;;;;;;;;;;;;;21.69;51.01;96559.39;586010;242;62977;-59
2023/03/12 07:30:50;;;;;;;;;;;;;;;21.69;51.19;96554.05;586011;242;65307;-59
2023/03/12 07:33:19;;;;;;;;;;;;;;;21.69;51.62;96559.39;585931;242;66902;-59
2023/03/12 07:35:47;;;;;;;;;;;;;;;21.68;49.72;96556.98;585987;241;65051;-59
2023/03/12 07:38:15;;;;;;;;;;;;;;;21.69;52.87;96566.62;586064;242;67216;-59
2023/03/12 07:40:43;;;;;;;;;;;;;;;21.69;53.22;96577.32;586012;242;66894;-60
2023/03/12 07:43:11;;;;;;;;;;;;;;;21.69;52.46;96556.72;585918;242;63848;-59
2023/03/12 07:45:40;;;;;;;;;;;;;;;21.69;52.32;96563.95;586003;242;67172;-59
2023/03/12 07:48:08;;;;;;;;;;;;;;;21.69;52.19;96566.62;585995;242;66939;-59
2023/03/12 07:50:36;;;;;;;;;;;;;;;21.68;53.54;96560.45;586043;242;65085;-59
2023/03/12 07:53:04;;;;;;;;;;;;;;;21.68;50.56;96559.66;585975;242;67375;-59
2023/03/12 07:55:32;;;;;;;;;;;;;;;21.68;51.46;96565.80;586014;242;66946;-59
2023/03/12 07:58:00;;;;;;;;;;;;;;;21.68;52.75;96563.13;586005;242;64862;-59
2023/03/12 08:00:30;;;;;;;;;;;;;;;21.67;51.06;96566.11;585915;242;67221;-59
2023/03/12 08:02:57;;;;;;;;;;;;;;;21.68;53.17;96568.48;586075;242;65866;-59
2023/03/12 08:05:25;;;;;;;;;;;;;;;21.67;51.08;96582.16;586076;242;65057;-59
2023/03/12 08:07:53;;;;;;;;;;;;;;;21.68;53.85;96584.52;585151;242;64853;-59
2023/03/12 08:10:21;;;;;;;;;;;;;;;21.67;51.95;96590.17;586054;242;64566;-59
2023/03/12 08:12:49;;;;;;;;;;;;;;;21.67;50.31;96593.64;586011;242;63006;-59
2023/03/12 08:15:16;;;;;;;;;;;;;;;21.68;52.71;96594.43;585895;242;65073;-59
2023/03/12 08:17:44;;;;;;;;;;;;;;;21.66;51.55;96593.91;586077;242;65396;-59
2023/03/12 08:20:12;;;;;;;;;;;;;;;21.67;51.73;96598.20;586025;242;62931;-59
2023/03/12 08:22:39;;;;;;;;;;;;;;;21.66;51.71;96605.42;586028;242;65215;-65
2023/03/12 08:25:07;;;;;;;;;;;;;;;21.68;53.27;96607.80;586009;242;66907;-65
2023/03/12 08:27:35;;;;;;;;;;;;;;;21.68;52.20;96618.50;586019;242;65138;-65
2023/03/12 08:30:03;;;;;;;;;;;;;;;21.67;52.63;96606.22;586022;242;67250;-65
2023/03/12 08:32:31;;;;;;;;;;;;;;;21.67;54.78;96606.22;586040;242;65018;-65
2023/03/12 08:34:58;;;;;;;;;;;;;;;21.66;53.06;96610.78;586090;242;65082;-65
2023/03/12 08:37:26;;;;;;;;;;;;;;;21.67;54.17;96614.23;590077;240;66877;-65
2023/03/12 08:39:53;;;;;;;;;;;;;;;21.67;54.67;96606.22;590263;240;67128;-66
2023/03/12 08:42:21;;;;;;;;;;;;;;;21.67;54.23;96601.66;590308;240;65127;-65
2023/03/12 08:44:48;;;;;;;;;;;;;;;21.67;54.22;96603.55;590289;240;67376;-65
2023/03/12 08:47:16;;;;;;;;;;;;;;;21.68;52.54;96607.80;590101;240;67063;-65
2023/03/12 08:49:43;;;;;;;;;;;;;;;21.68;54.93;96618.50;590283;240;65068;-66
2023/03/12 08:52:11;;;;;;;;;;;;;;;21.70;54.79;96621.69;590245;240;65008;-66
2023/03/12 08:54:38;;;;;;;;;;;;;;;21.70;54.95;96622.48;590322;240;65101;-66
2023/03/12 08:57:07;;;;;;;;;;;;;;;21.70;53.90;96621.69;590326;240;62687;-65
2023/03/12 08:59:36;;;;;;;;;;;;;;;21.71;55.26;96617.92;590333;240;67111;-66
2023/03/12 09:02:04;;;;;;;;;;;;;;;21.71;54.06;96601.87;590278;240;66890;-65
2023/03/12 09:04:32;;;;;;;;;;;;;;;21.72;56.77;96606.95;590296;240;65111;-65
2023/03/12 09:07:00;;;;;;;;;;;;;;;21.72;53.01;96616.86;590244;240;66792;-65
2023/03/12 09:09:28;;;;;;;;;;;;;;;21.75;54.53;96616.29;590367;240;66712;-65
2023/03/12 09:11:55;;;;;;;;;;;;;;;21.75;52.60;96618.17;590294;240;64989;-66
2023/03/12 09:14:23;;;;;;;;;;;;;;;21.76;51.55;96620.55;590300;240;67005;-65
2023/03/12 09:16:50;;;;;;;;;;;;;;;21.79;52.95;96608.48;590287;240;67020;-65
2023/03/12 09:19:18;;;;;;;;;;;;;;;21.80;53.72;96604.71;590297;240;65097;-65
2023/03/12 09:21:45;;;;;;;;;;;;;;;21.80;51.79;96605.53;590333;240;67055;-65
2023/03/12 09:24:12;;;;;;;;;;;;;;;21.80;53.46;96600.19;590307;240;66851;-65
2023/03/12 09:26:40;;;;;;;;;;;;;;;21.81;54.73;96598.30;590291;240;65105;-65
2023/03/12 09:29:07;;;;;;;;;;;;;;;21.81;53.71;96593.74;590286;240;67227;-65
2023/03/12 09:31:35;;;;;;;;;;;;;;;21.83;52.65;96585.45;590262;240;65262;-65
2023/03/12 09:34:03;;;;;;;;;;;;;;;21.83;52.49;96594.26;590317;240;62968;-65
2023/03/12 09:36:31;;;;;;;;;;;;;;;21.84;54.01;96590.48;590233;240;67278;-65
2023/03/12 09:38:58;;;;;;;;;;;;;;;21.84;51.80;96598.52;590291;240;65201;-59
2023/03/12 09:41:27;;;;;;;;;;;;;;;21.86;53.50;96591.01;590274;240;63115;-59
2023/03/12 09:44:05;;;;;;;;;;;;;;;21.87;52.20;96583.77;590288;240;67078;-59
2023/03/12 09:46:37;;;;;;;;;;;;;;;21.87;54.24;96584.56;590174;240;64949;-60
2023/03/12 09:49:06;;;;;;;;;;;;;;;21.87;52.41;96584.56;590357;240;62921;-59
2023/03/12 09:51:41;;;;;;;;;;;;;;;21.89;51.75;96595.78;590182;240;66985;-59
2023/03/12 09:54:10;;;;;;;;;;;;;;;21.89;50.59;96595.78;590046;240;64906;-59
2023/03/12 09:56:38;;;;;;;;;;;;;;;21.90;53.11;96605.39;589940;240;62988;-59
2023/03/12 09:59:07;;;;;;;;;;;;;;;21.90;51.69;96592.02;590251;240;65201;-59
2023/03/12 10:01:39;;;;;;;;;;;;;;;21.91;50.63;96606.20;590231;240;66910;-59
2023/03/12 10:04:24;;;;;;;;;;;;;;;21.93;52.28;96601.34;590139;240;62929;-59
2023/03/12 10:06:53;;;;;;;;;;;;;;;21.91;50.95;96625.73;590253;240;67417;-59
2023/03/12 10:09:28;;;;;;;;;;;;;;;21.94;52.73;96635.06;590205;240;64855;-59
2023/03/12 10:12:10;;;;;;;;;;;;;;;21.94;53.11;96633.17;589827;240;65117;-59
2023/03/12 10:14:54;;;;;;;;;;;;;;;21.94;51.11;96637.73;588558;240;64789;-59
2023/03/12 10:17:23;;;;;;;;;;;;;;;21.95;52.14;96645.46;589646;240;64876;-61
2023/03/12 10:20:02;;;;;;;;;;;;;;;21.95;52.03;96642.78;589946;240;62895;-60
2023/03/12 10:22:35;;;;;;;;;;;;;;;21.97;50.87;96655.10;590305;240;66966;-60
2023/03/12 10:25:16;;;;;;;;;;;;;;;21.97;50.98;96647.86;590254;240;64670;-60
2023/03/12 10:27:44;;;;;;;;;;;;;;;21.97;53.55;96639.05;590011;240;63063;-60
2023/03/12 10:30:22;;;;;;;;;;;;;;;21.98;50.99;96637.95;585123;240;64642;-60
2023/03/12 10:32:51;;;;;;;;;;;;;;;21.98;50.20;96635.28;590277;240;66620;-60
2023/03/12 10:35:20;;;;;;;;;;;;;;;21.98;50.85;96641.42;589867;240;62947;-60
2023/03/12 10:37:55;;;;;;;;;;;;;;;21.99;53.80;96637.68;586101;242;66927;-60
2023/03/12 10:40:27;;;;;;;;;;;;;;;22.00;49.65;96646.50;585940;242;66427;-60
2023/03/12 10:42:55;;;;;;;;;;;;;;;22.02;50.75;96638.98;586045;242;65219;-60
2023/03/12 10:45:39;;;;;;;;;;;;;;;22.03;53.15;96644.04;586075;242;66708;-60
2023/03/12 10:48:08;;;;;;;;;;;;;;;22.04;52.31;96642.16;586016;242;66934;-60
2023/03/12 10:50:37;;;;;;;;;;;;;;;22.06;50.90;96639.99;586067;242;65065;-60
2023/03/12 10:53:22;;;;;;;;;;;;;;;22.06;51.81;96643.46;586052;242;67016;-60
2023/03/12 10:56:00;;;;;;;;;;;;;;;22.07;51.08;96642.40;586041;242;66820;-60
2023/03/12 10:58:29;;;;;;;;;;;;;;;22.09;48.54;96631.39;586066;242;63795;-60
2023/03/12 11:00:57;;;;;;;;;;;;;;;22.10;49.73;96635.67;585996;242;66933;-60
2023/03/12 11:03:25;;;;;;;;;;;;;;;22.11;49.18;96630.02;586018;242;64793;-60
2023/03/12 11:05:54;;;;;;;;;;;;;;;22.13;48.51;96635.09;586077;242;62946;-60
2023/03/12 11:08:25;;;;;;;;;;;;;;;22.15;49.83;96614.17;586071;242;64524;-60
2023/03/12 11:10:54;;;;;;;;;;;;;;;22.16;49.96;96618.47;586040;242;64596;-60
2023/03/12 11:13:23;;;;;;;;;;;;;;;22.19;48.14;96619.80;586021;242;65127;-60
2023/03/12 11:15:51;;;;;;;;;;;;;;;22.19;47.54;96625.16;586052;242;67308;-60
2023/03/12 11:18:24;;;;;;;;;;;;;;;22.22;47.77;96614.66;586057;242;65628;-60
2023/03/12 11:20:53;;;;;;;;;;;;;;;22.24;48.36;96623.20;586101;242;62787;-60
2023/03/12 11:23:22;;;;;;;;;;;;;;;22.23;47.70;96610.89;586049;242;66924;-60
2023/03/12 11:25:54;;;;;;;;;;;;;;;22.26;47.93;96613.02;586030;242;64775;-60
2023/03/12 11:28:23;;;;;;;;;;;;;;;22.27;48.21;96617.27;585951;242;63077;-60
2023/03/12 11:30:51;;;;;;;;;;;;;;;22.30;46.50;96619.37;586059;242;66898;-60
2023/03/12 11:33:19;;;;;;;;;;;;;;;22.32;46.04;96605.70;586053;242;66928;-60
2023/03/12 11:36:02;;;;;;;;;;;;;;;22.34;45.47;96615.05;585617;241;65047;-66
2023/03/12 11:38:36;;;;;;;;;;;;;;;22.36;44.81;96612.84;585858;242;66962;-67
2023/03/12 11:41:24;;;;;;;;;;;;;;;22.38;45.87;96624.08;585956;242;64773;-66
2023/03/12 11:44:02;;;;;;;;;;;;;;;22.42;46.32;96607.42;585358;242;65267;-66
2023/03/12 11:46:31;;;;;;;;;;;;;;;22.41;44.87;96614.67;585910;242;64925;-67
2023/03/12 11:49:00;;;;;;;;;;;;;;;22.44;44.67;96613.30;586076;242;64737;-67
2023/03/12 11:51:35;;;;;;;;;;;;;;;22.45;45.30;96614.88;585998;242;65228;-66
2023/03/12 11:54:20;;;;;;;;;;;;;;;22.47;45.11;96618.07;586098;242;64653;-60
2023/03/12 11:56:56;;;;;;;;;;;;;;;22.49;45.34;96623.94;586078;242;64575;-59
2023/03/12 11:59:37;;;;;;;;;;;;;;;22.50;44.41;96612.92;585773;242;65316;-60
2023/03/12 12:02:19;;;;;;;;;;;;;;;22.53;46.41;96616.90;586026;242;66939;-60
2023/03/12 12:04:53;;;;;;;;;;;;;;;22.55;47.36;96620.09;586041;242;65040;-60
2023/03/12 12:07:28;;;;;;;;;;;;;;;22.56;46.48;96627.03;585778;242;65095;-60
2023/03/12 12:09:58;;;;;;;;;;;;;;;22.56;44.72;96624.35;586070;242;64742;-59
2023/03/12 12:12:30;;;;;;;;;;;;;;;22.59;45.12;96626.48;585913;242;64815;-59
2023/03/12 12:14:59;;;;;;;;;;;;;;;22.61;45.21;96640.34;586090;242;63098;-60
2023/03/12 12:17:32;;;;;;;;;;;;;;;22.63;47.00;96627.47;585447;242;67001;-60
2023/03/12 12:20:07;;;;;;;;;;;;;;;22.63;44.69;96630.15;585867;242;64735;-60
2023/03/12 12:22:40;;;;;;;;;;;;;;;22.66;44.70;96628.77;585880;242;62800;-60
2023/03/12 12:25:16;;;;;;;;;;;;;;;22.67;45.70;96633.85;585868;242;66735;-60
2023/03/12 12:27:51;;;;;;;;;;;;;;;22.70;44.98;96629.77;586108;242;67016;-60
2023/03/12 12:30:29;;;;;;;;;;;;;;;22.71;45.42;96632.17;585879;242;64928;-60
2023/03/12 12:33:00;;;;;;;;;;;;;;;22.71;46.40;96632.17;585797;242;65059;-60
2023/03/12 12:35:38;;;;;;;;;;;;;;;22.73;46.34;96624.65;586059;241;66856;-61
2023/03/12 12:38:22;;;;;;;;;;;;;;;22.75;46.33;96632.37;586071;242;63002;-60
2023/03/12 12:40:54;;;;;;;;;;;;;;;22.76;44.92;96631.31;586091;242;66781;-60
2023/03/12 12:43:31;;;;;;;;;;;;;;;22.78;45.17;96629.11;586025;242;66923;-61
2023/03/12 12:45:57;;;;;;;;;;;;;;;22.79;44.68;96630.72;585815;242;65320;-61
2023/03/12 12:48:26;;;;;;;;;;;;;;;22.80;43.85;96633.09;586094;242;66841;-61
2023/03/12 12:50:54;;;;;;;;;;;;;;;22.82;44.71;96633.60;586031;242;66872;-61
2023/03/12 12:53:23;;;;;;;;;;;;;;;22.82;45.55;96630.92;586034;242;65050;-61
2023/03/12 12:56:10;;;;;;;;;;;;;;;22.85;44.84;96621.51;586035;242;66918;-61
2023/03/12 12:58:48;;;;;;;;;;;;;;;22.85;46.54;96634.91;586074;242;66808;-60